createdAt,value
2018-11-27T00:01:04.551Z,5.56
2018-11-27T00:03:38.607Z,5.54
2018-11-27T00:06:07.619Z,5.55
2018-11-27T00:08:36.715Z,5.54
2018-11-27T00:11:05.647Z,5.56
2018-11-27T00:13:34.590Z,5.55
2018-11-27T00:16:03.395Z,5.55
2018-11-27T00:18:32.868Z,5.57
2018-11-27T00:21:01.702Z,5.60
2018-11-27T00:23:30.764Z,5.57
2018-11-27T00:25:59.573Z,5.58
2018-11-27T00:28:28.446Z,5.56
2018-11-27T00:30:57.232Z,5.55
2018-11-27T00:33:26.178Z,5.57
2018-11-27T00:35:55.736Z,5.59
2018-11-27T00:38:24.567Z,5.62
2018-11-27T00:40:53.721Z,5.65
2018-11-27T00:43:22.612Z,5.56
2018-11-27T00:45:51.356Z,5.53
2018-11-27T00:48:20.170Z,5.52
2018-11-27T00:50:49.084Z,5.52
2018-11-27T00:53:18.016Z,5.50
2018-11-27T00:55:47.069Z,5.53
2018-11-27T00:58:15.832Z,5.48
2018-11-27T01:00:45.366Z,5.45
2018-11-27T01:03:14.085Z,5.46
2018-11-27T01:05:42.911Z,5.47
2018-11-27T01:08:11.627Z,5.47
2018-11-27T01:10:41.824Z,5.49
2018-11-27T01:13:11.417Z,5.47
2018-11-27T01:15:40.417Z,5.47
2018-11-27T01:18:09.211Z,5.50
2018-11-27T01:20:38.548Z,5.51
2018-11-27T01:23:08.181Z,5.56
2018-11-27T01:25:38.146Z,5.55
2018-11-27T01:28:07.327Z,5.57
2018-11-27T01:30:36.636Z,5.54
2018-11-27T01:33:05.926Z,5.52
2018-11-27T01:35:34.975Z,5.53
2018-11-27T01:38:04.884Z,5.54
2018-11-27T01:40:33.604Z,5.54
2018-11-27T01:43:03.187Z,5.51
2018-11-27T01:45:31.938Z,5.51
2018-11-27T01:48:01.627Z,5.51
2018-11-27T01:50:31.130Z,5.49
2018-11-27T01:53:00.412Z,5.49
2018-11-27T01:55:29.074Z,5.51
2018-11-27T01:57:58.021Z,5.48
2018-11-27T02:00:28.088Z,5.46
2018-11-27T02:02:57.348Z,5.44
2018-11-27T02:05:27.248Z,5.44
2018-11-27T02:07:56.247Z,5.45
2018-11-27T02:10:27.385Z,5.44
2018-11-27T02:13:01.229Z,5.44
2018-11-27T02:15:29.233Z,5.46
2018-11-27T02:17:58.955Z,5.46
2018-11-27T02:20:28.772Z,5.43
2018-11-27T02:22:57.796Z,5.43
2018-11-27T02:25:27.900Z,5.43
2018-11-27T02:28:13.330Z,5.40
2018-11-27T02:30:43.613Z,5.41
2018-11-27T02:33:15.482Z,5.39
2018-11-27T02:35:45.310Z,5.37
2018-11-27T02:38:14.140Z,5.35
2018-11-27T02:40:43.323Z,5.36
2018-11-27T02:43:13.132Z,5.32
2018-11-27T02:45:42.925Z,5.30
2018-11-27T02:48:19.658Z,5.24
2018-11-27T02:50:48.764Z,5.21
2018-11-27T02:53:18.461Z,5.19
2018-11-27T02:55:47.290Z,5.17
2018-11-27T02:58:15.939Z,5.16
2018-11-27T03:00:45.468Z,5.14
2018-11-27T03:03:14.219Z,5.14
2018-11-27T03:05:43.010Z,5.13
2018-11-27T03:08:11.765Z,5.11
2018-11-27T03:10:40.919Z,5.09
2018-11-27T03:13:09.636Z,5.08
2018-11-27T03:15:38.371Z,5.06
2018-11-27T03:18:07.686Z,5.07
2018-11-27T03:20:36.807Z,5.06
2018-11-27T03:23:11.877Z,5.05
2018-11-27T03:25:40.894Z,5.04
2018-11-27T03:28:09.713Z,5.03
2018-11-27T03:30:38.656Z,5.00
2018-11-27T03:33:07.471Z,5.00
2018-11-27T03:35:36.671Z,5.00
2018-11-27T03:38:05.434Z,5.01
2018-11-27T03:40:34.265Z,5.01
2018-11-27T03:43:02.977Z,5.01
2018-11-27T03:45:32.428Z,4.99
2018-11-27T03:48:01.264Z,5.00
2018-11-27T03:50:31.449Z,5.02
2018-11-27T03:53:00.334Z,5.07
2018-11-27T03:55:29.736Z,5.09
2018-11-27T03:57:58.719Z,5.12
2018-11-27T04:00:28.944Z,5.16
2018-11-27T04:03:04.385Z,5.17
2018-11-27T04:05:33.305Z,5.19
2018-11-27T04:08:02.122Z,5.22
2018-11-27T04:10:30.921Z,5.25
2018-11-27T04:12:59.716Z,5.26
2018-11-27T04:15:28.432Z,5.30
2018-11-27T04:17:57.450Z,5.27
2018-11-27T04:20:26.335Z,5.26
2018-11-27T04:22:55.063Z,5.24
2018-11-27T04:25:23.842Z,5.23
2018-11-27T04:27:53.659Z,5.21
2018-11-27T04:30:23.471Z,5.17
2018-11-27T04:32:52.480Z,5.14
2018-11-27T04:35:22.183Z,5.11
2018-11-27T04:37:52.093Z,5.11
2018-11-27T04:40:22.027Z,5.11
2018-11-27T04:42:50.889Z,5.07
2018-11-27T04:45:22.110Z,5.08
2018-11-27T04:47:51.041Z,5.06
2018-11-27T04:50:36.568Z,5.06
2018-11-27T04:53:06.660Z,5.06
2018-11-27T04:55:35.562Z,5.06
2018-11-27T04:58:04.297Z,5.04
2018-11-27T05:00:33.369Z,5.07
2018-11-27T05:03:02.435Z,5.08
2018-11-27T05:05:31.438Z,5.08
2018-11-27T05:08:00.501Z,5.08
2018-11-27T05:10:29.264Z,5.05
2018-11-27T05:12:58.161Z,5.03
2018-11-27T05:15:27.604Z,4.98
2018-11-27T05:17:58.344Z,4.97
2018-11-27T05:20:27.371Z,4.96
2018-11-27T05:22:57.654Z,4.99
2018-11-27T05:25:26.714Z,5.02
2018-11-27T05:27:58.301Z,5.04
2018-11-27T05:30:29.757Z,5.04
2018-11-27T05:32:59.470Z,5.07
2018-11-27T05:35:31.287Z,5.05
2018-11-27T05:38:02.513Z,5.02
2018-11-27T05:40:31.707Z,5.02
2018-11-27T05:43:04.960Z,5.07
2018-11-27T05:45:33.752Z,5.14
2018-11-27T05:48:02.542Z,5.16
2018-11-27T05:50:31.533Z,5.21
2018-11-27T05:53:00.700Z,5.23
2018-11-27T05:55:29.890Z,5.28
2018-11-27T05:57:58.928Z,5.33
2018-11-27T06:00:29.569Z,5.34
2018-11-27T06:03:00.391Z,5.39
2018-11-27T06:05:29.381Z,5.41
2018-11-27T06:07:59.302Z,5.43
2018-11-27T06:10:28.176Z,5.44
2018-11-27T06:12:57.416Z,5.49
2018-11-27T06:15:27.945Z,5.50
2018-11-27T06:18:00.124Z,5.51
2018-11-27T06:20:31.054Z,5.46
2018-11-27T06:23:00.223Z,5.43
2018-11-27T06:25:30.644Z,5.45
2018-11-27T06:28:01.580Z,5.49
2018-11-27T06:30:31.358Z,5.53
2018-11-27T06:33:00.642Z,5.54
2018-11-27T06:35:31.960Z,5.55
2018-11-27T06:38:01.126Z,5.55
2018-11-27T06:40:31.067Z,5.59
2018-11-27T06:43:01.140Z,5.60
2018-11-27T06:45:30.478Z,5.61
2018-11-27T06:48:00.339Z,5.61
2018-11-27T06:50:29.799Z,5.62
2018-11-27T06:52:59.762Z,5.64
2018-11-27T06:55:28.773Z,5.69
2018-11-27T06:57:58.720Z,5.71
2018-11-27T07:00:28.750Z,5.77
2018-11-27T07:02:58.417Z,5.77
2018-11-27T07:05:27.594Z,5.80
2018-11-27T07:07:58.316Z,5.79
2018-11-27T07:10:31.391Z,5.84
2018-11-27T07:13:07.936Z,5.84
2018-11-27T07:15:36.670Z,5.85
2018-11-27T07:18:07.360Z,5.84
2018-11-27T07:20:36.582Z,5.86
2018-11-27T07:23:06.607Z,5.87
2018-11-27T07:25:39.850Z,5.88
2018-11-27T07:28:08.923Z,5.91
2018-11-27T07:30:40.753Z,5.91
2018-11-27T07:33:12.688Z,5.91
2018-11-27T07:35:41.675Z,5.91
2018-11-27T07:38:10.438Z,5.87
2018-11-27T07:40:39.170Z,5.85
2018-11-27T07:43:10.434Z,5.86
2018-11-27T07:45:39.792Z,5.81
2018-11-27T07:48:09.444Z,5.74
2018-11-27T07:50:38.143Z,5.69
2018-11-27T07:53:07.442Z,5.71
2018-11-27T07:55:36.398Z,5.73
2018-11-27T07:58:06.827Z,5.75
2018-11-27T08:00:36.351Z,5.78
2018-11-27T08:03:07.151Z,5.79
2018-11-27T08:05:37.663Z,5.78
2018-11-27T08:08:07.515Z,5.73
2018-11-27T08:10:36.244Z,5.75
2018-11-27T08:13:04.947Z,5.80
2018-11-27T08:15:33.894Z,5.82
2018-11-27T08:18:02.622Z,5.88
2018-11-27T08:20:32.607Z,5.88
2018-11-27T08:23:02.292Z,5.91
2018-11-27T08:25:30.989Z,5.90
2018-11-27T08:27:59.820Z,5.94
2018-11-27T08:30:28.593Z,5.97
2018-11-27T08:32:58.680Z,6.03
2018-11-27T08:35:29.290Z,6.08
2018-11-27T08:38:35.650Z,6.12
2018-11-27T08:41:06.443Z,6.13
2018-11-27T08:43:35.375Z,6.18
2018-11-27T08:46:04.306Z,6.25
2018-11-27T08:48:33.281Z,6.26
2018-11-27T08:51:02.093Z,6.26
2018-11-27T08:53:30.938Z,6.30
2018-11-27T08:56:00.177Z,6.31
2018-11-27T08:58:28.885Z,6.31
2018-11-27T09:00:57.733Z,6.33
2018-11-27T09:03:26.520Z,6.38
2018-11-27T09:05:55.416Z,6.42
2018-11-27T09:08:24.201Z,6.44
2018-11-27T09:10:52.846Z,6.44
2018-11-27T09:13:21.566Z,6.45
2018-11-27T09:15:50.649Z,6.47
2018-11-27T09:18:21.891Z,6.49
2018-11-27T09:20:51.281Z,6.57
2018-11-27T09:23:20.086Z,6.66
2018-11-27T09:25:49.694Z,6.65
2018-11-27T09:28:20.219Z,6.65
2018-11-27T09:30:50.660Z,6.72
2018-11-27T09:33:21.085Z,6.77
2018-11-27T09:35:50.287Z,6.76
2018-11-27T09:38:19.094Z,6.79
2018-11-27T09:40:47.775Z,6.85
2018-11-27T09:43:16.717Z,6.90
2018-11-27T09:45:46.237Z,6.89
2018-11-27T09:48:14.896Z,6.87
2018-11-27T09:50:44.605Z,6.89
2018-11-27T09:53:15.149Z,6.91
2018-11-27T09:55:44.743Z,6.96
2018-11-27T09:58:13.567Z,7.02
2018-11-27T10:00:42.356Z,7.12
2018-11-27T10:03:12.984Z,7.13
2018-11-27T10:05:41.857Z,7.19
2018-11-27T10:08:12.059Z,7.19
2018-11-27T10:10:40.852Z,7.16
2018-11-27T10:13:09.757Z,7.12
2018-11-27T10:15:39.363Z,7.08
2018-11-27T10:18:08.276Z,7.13
2018-11-27T10:20:39.404Z,7.14
2018-11-27T10:23:10.804Z,7.20
2018-11-27T10:25:40.004Z,7.17
2018-11-27T10:28:08.992Z,7.25
2018-11-27T10:30:38.052Z,7.31
2018-11-27T10:33:09.586Z,7.34
2018-11-27T10:35:52.457Z,7.38
2018-11-27T10:38:21.298Z,7.46
2018-11-27T10:40:51.397Z,7.52
2018-11-27T10:43:21.388Z,7.50
2018-11-27T10:45:51.474Z,7.50
2018-11-27T10:48:20.299Z,7.54
2018-11-27T10:50:49.996Z,7.54
2018-11-27T10:53:18.744Z,7.52
2018-11-27T10:55:47.589Z,7.51
2018-11-27T10:58:17.019Z,7.57
2018-11-27T11:00:51.022Z,7.56
2018-11-27T11:03:49.888Z,7.60
2018-11-27T11:06:18.710Z,7.65
2018-11-27T11:08:48.030Z,7.70
2018-11-27T11:11:16.884Z,7.80
2018-11-27T11:13:45.841Z,7.85
2018-11-27T11:16:15.128Z,7.91
2018-11-27T11:18:44.581Z,7.92
2018-11-27T11:21:13.503Z,7.91
2018-11-27T11:23:43.591Z,7.98
2018-11-27T11:26:12.704Z,8.02
2018-11-27T11:28:43.021Z,8.06
2018-11-27T11:31:11.695Z,8.09
2018-11-27T11:33:40.592Z,8.16
2018-11-27T11:36:10.192Z,8.17
2018-11-27T11:38:39.089Z,8.24
2018-11-27T11:41:07.968Z,8.29
2018-11-27T11:43:36.950Z,8.35
2018-11-27T11:46:06.212Z,8.38
2018-11-27T11:48:34.976Z,8.40
2018-11-27T11:51:04.274Z,8.45
2018-11-27T11:53:33.159Z,8.43
2018-11-27T11:56:02.040Z,8.33
2018-11-27T11:58:30.880Z,8.27
2018-11-27T12:00:59.937Z,8.29
2018-11-27T12:03:28.824Z,8.22
2018-11-27T12:05:58.649Z,8.12
2018-11-27T12:08:28.456Z,8.12
2018-11-27T12:10:58.643Z,8.10
2018-11-27T12:13:27.381Z,8.16
2018-11-27T12:15:56.418Z,8.12
2018-11-27T12:18:25.166Z,8.12
2018-11-27T12:20:53.909Z,8.11
2018-11-27T12:23:22.601Z,8.12
2018-11-27T12:25:51.392Z,8.12
2018-11-27T12:28:20.156Z,8.07
2018-11-27T12:30:49.064Z,8.08
2018-11-27T12:33:17.861Z,8.18
2018-11-27T12:35:46.715Z,8.20
2018-11-27T12:38:17.104Z,8.16
2018-11-27T12:40:46.087Z,8.12
2018-11-27T12:43:15.700Z,8.12
2018-11-27T12:45:44.584Z,8.14
2018-11-27T12:48:13.349Z,8.17
2018-11-27T12:50:43.774Z,8.22
2018-11-27T12:53:16.986Z,8.20
2018-11-27T12:55:44.846Z,8.17
2018-11-27T12:58:13.711Z,8.16
2018-11-27T13:00:42.457Z,8.18
2018-11-27T13:03:11.273Z,8.14
2018-11-27T13:05:43.159Z,8.08
2018-11-27T13:08:17.539Z,7.95
2018-11-27T13:10:46.450Z,7.90
2018-11-27T13:13:16.332Z,7.78
2018-11-27T13:15:45.779Z,7.75
2018-11-27T13:18:14.944Z,7.76
2018-11-27T13:20:43.764Z,7.93
2018-11-27T13:23:12.478Z,7.92
2018-11-27T13:25:42.317Z,7.85
2018-11-27T13:28:12.697Z,7.80
2018-11-27T13:30:48.698Z,7.85
2018-11-27T13:33:20.621Z,7.85
2018-11-27T13:35:49.456Z,7.83
2018-11-27T13:38:18.154Z,7.83
2018-11-27T13:40:46.851Z,7.83
2018-11-27T13:43:22.746Z,7.83
2018-11-27T13:45:51.580Z,7.93
2018-11-27T13:48:20.332Z,7.95
2018-11-27T13:50:49.052Z,7.90
2018-11-27T13:53:17.873Z,7.86
2018-11-27T13:55:47.687Z,7.81
2018-11-27T13:58:17.184Z,7.74
2018-11-27T14:00:46.258Z,7.67
2018-11-27T14:03:14.960Z,7.74
2018-11-27T14:05:43.735Z,7.78
2018-11-27T14:08:12.804Z,7.86
2018-11-27T14:10:41.815Z,7.85
2018-11-27T14:13:10.887Z,7.97
2018-11-27T14:15:40.238Z,7.84
2018-11-27T14:18:09.377Z,7.74
2018-11-27T14:20:38.598Z,7.68
2018-11-27T14:23:09.166Z,7.68
2018-11-27T14:25:38.207Z,7.64
2018-11-27T14:28:07.096Z,7.64
2018-11-27T14:30:35.931Z,7.59
2018-11-27T14:33:05.980Z,7.60
2018-11-27T14:35:34.849Z,7.51
2018-11-27T14:38:03.847Z,7.48
2018-11-27T14:40:32.575Z,7.50
2018-11-27T14:43:01.563Z,7.58
2018-11-27T14:45:30.427Z,7.61
2018-11-27T14:47:59.750Z,7.55
2018-11-27T14:50:28.709Z,7.51
2018-11-27T14:52:57.892Z,7.56
2018-11-27T14:55:30.317Z,7.52
2018-11-27T14:57:59.803Z,7.44
2018-11-27T15:00:30.370Z,7.41
2018-11-27T15:02:59.423Z,7.34
2018-11-27T15:05:38.486Z,7.34
2018-11-27T15:08:14.295Z,7.31
2018-11-27T15:10:43.070Z,7.31
2018-11-27T15:13:12.820Z,7.30
2018-11-27T15:15:42.090Z,7.29
2018-11-27T15:18:10.776Z,7.27
2018-11-27T15:20:39.785Z,7.23
2018-11-27T15:23:08.429Z,7.22
2018-11-27T15:25:37.155Z,7.21
2018-11-27T15:28:07.291Z,7.17
2018-11-27T15:30:38.393Z,7.08
2018-11-27T15:33:07.899Z,7.03
2018-11-27T15:35:38.128Z,6.99
2018-11-27T15:38:07.679Z,7.00
2018-11-27T15:40:37.057Z,6.94
2018-11-27T15:43:06.931Z,6.90
2018-11-27T15:45:36.335Z,6.86
2018-11-27T15:48:07.319Z,6.82
2018-11-27T15:50:36.313Z,6.77
2018-11-27T15:53:06.085Z,6.74
2018-11-27T15:55:37.448Z,6.66
2018-11-27T15:58:13.590Z,6.61
2018-11-27T16:00:43.508Z,6.50
2018-11-27T16:03:12.618Z,6.41
2018-11-27T16:05:45.300Z,6.36
2018-11-27T16:08:14.598Z,6.33
2018-11-27T16:10:43.306Z,6.26
2018-11-27T16:13:12.343Z,6.22
2018-11-27T16:15:41.168Z,6.17
2018-11-27T16:18:10.140Z,6.15
2018-11-27T16:20:39.114Z,6.08
2018-11-27T16:23:08.624Z,6.02
2018-11-27T16:25:37.594Z,6.01
2018-11-27T16:28:06.545Z,5.94
2018-11-27T16:30:35.304Z,5.88
2018-11-27T16:33:04.260Z,5.88
2018-11-27T16:35:32.988Z,5.83
2018-11-27T16:38:01.963Z,5.81
2018-11-27T16:40:32.404Z,5.78
2018-11-27T16:43:01.144Z,5.73
2018-11-27T16:45:30.083Z,5.69
2018-11-27T16:47:59.061Z,5.63
2018-11-27T16:50:28.724Z,5.57
2018-11-27T16:52:57.730Z,5.55
2018-11-27T16:55:26.674Z,5.56
2018-11-27T16:57:55.398Z,5.59
2018-11-27T17:00:27.014Z,5.59
2018-11-27T17:02:59.444Z,5.62
2018-11-27T17:05:29.660Z,5.68
2018-11-27T17:07:58.515Z,5.68
2018-11-27T17:10:33.513Z,5.69
2018-11-27T17:13:02.920Z,5.71
2018-11-27T17:15:31.680Z,5.67
2018-11-27T17:18:00.399Z,5.62
2018-11-27T17:20:30.429Z,5.58
2018-11-27T17:23:02.211Z,5.56
2018-11-27T17:25:31.007Z,5.54
2018-11-27T17:28:07.204Z,5.51
2018-11-27T17:31:09.713Z,5.45
2018-11-27T17:33:44.637Z,5.42
2018-11-27T17:36:13.892Z,5.43
2018-11-27T17:38:42.628Z,5.47
2018-11-27T17:41:11.633Z,5.50
2018-11-27T17:43:41.026Z,5.56
2018-11-27T17:46:09.868Z,5.63
2018-11-27T17:48:38.752Z,5.64
2018-11-27T17:51:08.546Z,5.64
2018-11-27T17:53:37.252Z,5.69
2018-11-27T17:56:06.275Z,5.71
2018-11-27T17:58:35.186Z,5.70
2018-11-27T18:01:05.083Z,5.72
2018-11-27T18:03:36.715Z,5.75
2018-11-27T18:06:05.600Z,5.75
2018-11-27T18:08:34.412Z,5.76
2018-11-27T18:11:03.135Z,5.71
2018-11-27T18:13:32.118Z,5.67
2018-11-27T18:16:00.743Z,5.61
2018-11-27T18:18:29.425Z,5.52
2018-11-27T18:20:58.166Z,5.45
2018-11-27T18:23:26.818Z,5.41
2018-11-27T18:25:55.788Z,5.34
2018-11-27T18:28:24.502Z,5.29
2018-11-27T18:30:53.287Z,5.27
2018-11-27T18:33:22.082Z,5.22
2018-11-27T18:35:50.733Z,5.36
2018-11-27T18:38:19.563Z,5.31
2018-11-27T18:40:48.318Z,5.21
2018-11-27T18:43:17.058Z,5.16
2018-11-27T18:45:45.853Z,5.11
2018-11-27T18:48:19.177Z,5.05
2018-11-27T18:50:50.681Z,5.03
2018-11-27T18:53:19.731Z,5.01
2018-11-27T18:55:51.221Z,4.95
2018-11-27T18:58:21.325Z,4.97
2018-11-27T19:00:58.146Z,4.90
2018-11-27T19:03:32.797Z,4.83
2018-11-27T19:06:03.619Z,4.80
2018-11-27T19:08:32.746Z,4.80
2018-11-27T19:11:01.569Z,4.81
2018-11-27T19:13:30.376Z,4.77
2018-11-27T19:15:59.169Z,4.73
2018-11-27T19:18:28.317Z,4.73
2018-11-27T19:20:57.171Z,4.71
2018-11-27T19:23:26.822Z,4.69
2018-11-27T19:25:55.663Z,4.66
2018-11-27T19:28:24.811Z,4.66
2018-11-27T19:30:53.607Z,4.67
2018-11-27T19:33:22.613Z,4.62
2018-11-27T19:35:51.676Z,4.61
2018-11-27T19:38:21.033Z,4.59
2018-11-27T19:40:49.912Z,4.62
2018-11-27T19:43:19.213Z,4.61
2018-11-27T19:45:48.125Z,4.60
2018-11-27T19:48:17.411Z,4.56
2018-11-27T19:50:46.107Z,4.53
2018-11-27T19:53:15.875Z,4.53
2018-11-27T19:55:44.987Z,4.62
2018-11-27T19:58:14.187Z,4.56
2018-11-27T20:00:43.022Z,4.56
2018-11-27T20:03:12.668Z,4.52
2018-11-27T20:05:41.733Z,4.50
2018-11-27T20:08:14.227Z,4.45
2018-11-27T20:10:43.044Z,4.44
2018-11-27T20:13:11.971Z,4.49
2018-11-27T20:15:41.034Z,4.45
2018-11-27T20:18:10.104Z,4.44
2018-11-27T20:20:38.871Z,4.39
2018-11-27T20:23:08.269Z,4.34
2018-11-27T20:25:37.133Z,4.34
2018-11-27T20:28:07.270Z,4.33
2018-11-27T20:30:36.960Z,4.33
2018-11-27T20:33:06.566Z,4.34
2018-11-27T20:35:35.682Z,4.31
2018-11-27T20:38:07.752Z,4.30
2018-11-27T20:40:36.726Z,4.26
2018-11-27T20:43:05.796Z,4.26
2018-11-27T20:45:35.224Z,4.27
2018-11-27T20:48:20.015Z,4.24
2018-11-27T20:50:50.581Z,4.18
2018-11-27T20:53:19.937Z,4.15
2018-11-27T20:55:49.617Z,4.12
2018-11-27T20:58:18.573Z,4.09
2018-11-27T21:00:49.056Z,4.06
2018-11-27T21:03:18.670Z,4.04
2018-11-27T21:05:48.485Z,3.99
2018-11-27T21:08:17.609Z,4.04
2018-11-27T21:10:46.990Z,3.98
2018-11-27T21:13:15.771Z,3.93
2018-11-27T21:15:44.915Z,3.92
2018-11-27T21:18:15.040Z,3.98
2018-11-27T21:20:44.399Z,3.85
2018-11-27T21:23:13.500Z,3.81
2018-11-27T21:25:42.486Z,3.79
2018-11-27T21:28:15.927Z,3.78
2018-11-27T21:30:46.086Z,3.75
2018-11-27T21:33:14.941Z,3.71
2018-11-27T21:35:43.838Z,3.71
2018-11-27T21:38:12.891Z,3.73
2018-11-27T21:40:41.937Z,3.74
2018-11-27T21:43:11.000Z,3.74
2018-11-27T21:45:41.004Z,3.73
2018-11-27T21:48:09.826Z,3.70
2018-11-27T21:50:41.685Z,3.66
2018-11-27T21:53:10.380Z,3.63
2018-11-27T21:55:40.203Z,3.72
2018-11-27T21:58:08.936Z,3.65
2018-11-27T22:00:39.173Z,3.62
2018-11-27T22:03:08.478Z,3.63
2018-11-27T22:05:37.291Z,3.59
2018-11-27T22:08:08.423Z,3.59
2018-11-27T22:10:37.641Z,3.60
2018-11-27T22:13:13.352Z,3.54
2018-11-27T22:15:43.356Z,3.55
2018-11-27T22:18:12.857Z,3.59
2018-11-27T22:20:41.737Z,3.59
2018-11-27T22:23:10.677Z,3.56
2018-11-27T22:25:39.665Z,3.57
2018-11-27T22:28:09.808Z,3.54
2018-11-27T22:30:38.830Z,3.52
2018-11-27T22:33:09.476Z,3.50
2018-11-27T22:35:38.693Z,3.50
2018-11-27T22:38:08.324Z,3.52
2018-11-27T22:40:37.753Z,3.49
2018-11-27T22:43:07.524Z,3.51
2018-11-27T22:45:38.615Z,3.48
2018-11-27T22:48:08.750Z,3.53
2018-11-27T22:50:37.574Z,3.48
2018-11-27T22:53:07.176Z,3.59
2018-11-27T22:55:35.866Z,3.52
2018-11-27T22:58:05.377Z,3.46
2018-11-27T23:00:39.679Z,3.46
2018-11-27T23:03:08.375Z,3.46
2018-11-27T23:05:37.166Z,3.54
2018-11-27T23:08:05.986Z,3.48
2018-11-27T23:10:36.253Z,3.46
2018-11-27T23:13:05.202Z,3.46
2018-11-27T23:15:34.031Z,3.50
2018-11-27T23:18:02.675Z,3.49
2018-11-27T23:20:31.503Z,3.48
2018-11-27T23:23:00.293Z,3.49
2018-11-27T23:25:29.113Z,3.45
2018-11-27T23:27:57.893Z,3.46
2018-11-27T23:30:27.070Z,3.53
2018-11-27T23:32:55.879Z,3.52
2018-11-27T23:35:24.722Z,3.47
2018-11-27T23:37:53.538Z,3.46
2018-11-27T23:40:22.797Z,3.44
2018-11-27T23:42:51.700Z,3.42
2018-11-27T23:45:22.361Z,3.43
2018-11-27T23:47:51.199Z,3.41
2018-11-27T23:50:20.991Z,3.40
2018-11-27T23:52:50.771Z,3.49
2018-11-27T23:55:20.436Z,3.39
2018-11-27T23:57:49.394Z,3.38
